sensor_id;sensor_type;location;lat;lon;timestamp;temperature;humidity
23497;DHT22;11925;48.122;11.560;2023-03-03T00:01:34;7.90;86.40
23497;DHT22;11925;48.122;11.560;2023-03-03T00:04:02;7.90;86.40
23497;DHT22;11925;48.122;11.560;2023-03-03T00:06:31;7.90;86.50
23497;DHT22;11925;48.122;11.560;2023-03-03T00:09:00;7.90;86.50
23497;DHT22;11925;48.122;11.560;2023-03-03T00:11:28;7.90;86.50
23497;DHT22;11925;48.122;11.560;2023-03-03T00:13:57;7.80;86.50
23497;DHT22;11925;48.122;11.560;2023-03-03T00:16:27;7.80;86.50
23497;DHT22;11925;48.122;11.560;2023-03-03T00:18:56;7.80;86.50
23497;DHT22;11925;48.122;11.560;2023-03-03T00:21:28;7.80;86.50
23497;DHT22;11925;48.122;11.560;2023-03-03T00:24:21;7.80;86.50
23497;DHT22;11925;48.122;11.560;2023-03-03T00:26:51;7.80;86.60
23497;DHT22;11925;48.122;11.560;2023-03-03T00:29:39;7.70;86.40
23497;DHT22;11925;48.122;11.560;2023-03-03T00:32:24;7.70;86.50
23497;DHT22;11925;48.122;11.560;2023-03-03T00:34:54;7.70;86.70
23497;DHT22;11925;48.122;11.560;2023-03-03T00:37:33;7.60;86.70
23497;DHT22;11925;48.122;11.560;2023-03-03T00:40:19;7.70;86.80
23497;DHT22;11925;48.122;11.560;2023-03-03T00:42:50;7.70;86.80
23497;DHT22;11925;48.122;11.560;2023-03-03T00:45:28;7.70;86.80
23497;DHT22;11925;48.122;11.560;2023-03-03T00:47:58;7.70;86.80
23497;DHT22;11925;48.122;11.560;2023-03-03T00:50:30;7.60;86.70
23497;DHT22;11925;48.122;11.560;2023-03-03T00:53:01;7.60;86.80
23497;DHT22;11925;48.122;11.560;2023-03-03T00:55:32;7.60;86.80
23497;DHT22;11925;48.122;11.560;2023-03-03T00:58:01;7.60;86.80
23497;DHT22;11925;48.122;11.560;2023-03-03T01:00:34;7.60;86.80
23497;DHT22;11925;48.122;11.560;2023-03-03T01:03:06;7.60;86.80
23497;DHT22;11925;48.122;11.560;2023-03-03T01:05:35;7.50;86.80
23497;DHT22;11925;48.122;11.560;2023-03-03T01:08:04;7.60;86.80
23497;DHT22;11925;48.122;11.560;2023-03-03T01:10:36;7.60;86.80
23497;DHT22;11925;48.122;11.560;2023-03-03T01:13:06;7.60;86.80
23497;DHT22;11925;48.122;11.560;2023-03-03T01:15:35;7.50;86.80
23497;DHT22;11925;48.122;11.560;2023-03-03T01:18:05;7.50;86.90
23497;DHT22;11925;48.122;11.560;2023-03-03T01:20:33;7.60;86.90
23497;DHT22;11925;48.122;11.560;2023-03-03T01:23:02;7.60;86.90
23497;DHT22;11925;48.122;11.560;2023-03-03T01:25:30;7.60;86.90
23497;DHT22;11925;48.122;11.560;2023-03-03T01:28:00;7.60;86.90
23497;DHT22;11925;48.122;11.560;2023-03-03T01:30:28;7.60;87.00
23497;DHT22;11925;48.122;11.560;2023-03-03T01:32:56;7.50;87.00
23497;DHT22;11925;48.122;11.560;2023-03-03T01:35:25;7.60;87.00
23497;DHT22;11925;48.122;11.560;2023-03-03T01:37:53;7.50;87.00
23497;DHT22;11925;48.122;11.560;2023-03-03T01:40:23;7.50;86.80
23497;DHT22;11925;48.122;11.560;2023-03-03T01:42:52;7.50;86.90
23497;DHT22;11925;48.122;11.560;2023-03-03T01:45:24;7.50;86.90
23497;DHT22;11925;48.122;11.560;2023-03-03T01:47:55;7.40;86.80
23497;DHT22;11925;48.122;11.560;2023-03-03T01:50:35;7.50;87.00
23497;DHT22;11925;48.122;11.560;2023-03-03T01:53:11;7.40;87.00
23497;DHT22;11925;48.122;11.560;2023-03-03T01:55:41;7.40;87.10
23497;DHT22;11925;48.122;11.560;2023-03-03T01:58:15;7.40;87.00
23497;DHT22;11925;48.122;11.560;2023-03-03T02:00:50;7.40;87.10
23497;DHT22;11925;48.122;11.560;2023-03-03T02:03:20;7.40;87.00
23497;DHT22;11925;48.122;11.560;2023-03-03T02:05:51;7.40;87.10
23497;DHT22;11925;48.122;11.560;2023-03-03T02:08:24;7.40;87.10
23497;DHT22;11925;48.122;11.560;2023-03-03T02:10:56;7.40;87.10
23497;DHT22;11925;48.122;11.560;2023-03-03T02:13:25;7.40;87.20
23497;DHT22;11925;48.122;11.560;2023-03-03T02:15:55;7.30;87.40
23497;DHT22;11925;48.122;11.560;2023-03-03T02:18:25;7.30;87.30
23497;DHT22;11925;48.122;11.560;2023-03-03T02:20:57;7.30;87.40
23497;DHT22;11925;48.122;11.560;2023-03-03T02:23:31;7.30;87.40
23497;DHT22;11925;48.122;11.560;2023-03-03T02:26:06;7.30;87.20
23497;DHT22;11925;48.122;11.560;2023-03-03T02:28:36;7.30;87.20
23497;DHT22;11925;48.122;11.560;2023-03-03T02:31:09;7.30;87.20
23497;DHT22;11925;48.122;11.560;2023-03-03T02:33:40;7.30;87.20
23497;DHT22;11925;48.122;11.560;2023-03-03T02:36:11;7.30;87.30
23497;DHT22;11925;48.122;11.560;2023-03-03T02:38:41;7.30;87.40
23497;DHT22;11925;48.122;11.560;2023-03-03T02:41:17;7.30;87.40
23497;DHT22;11925;48.122;11.560;2023-03-03T02:43:53;7.30;87.20
23497;DHT22;11925;48.122;11.560;2023-03-03T02:46:23;7.30;87.30
23497;DHT22;11925;48.122;11.560;2023-03-03T02:48:52;7.30;87.30
23497;DHT22;11925;48.122;11.560;2023-03-03T02:51:20;7.30;87.30
23497;DHT22;11925;48.122;11.560;2023-03-03T02:53:48;7.30;87.30
23497;DHT22;11925;48.122;11.560;2023-03-03T02:56:18;7.30;87.50
23497;DHT22;11925;48.122;11.560;2023-03-03T02:58:47;7.20;87.60
23497;DHT22;11925;48.122;11.560;2023-03-03T03:01:16;7.20;87.50
23497;DHT22;11925;48.122;11.560;2023-03-03T03:03:45;7.20;87.60
23497;DHT22;11925;48.122;11.560;2023-03-03T03:06:17;7.30;87.70
23497;DHT22;11925;48.122;11.560;2023-03-03T03:08:46;7.30;87.70
23497;DHT22;11925;48.122;11.560;2023-03-03T03:11:14;7.30;87.70
23497;DHT22;11925;48.122;11.560;2023-03-03T03:13:44;7.30;87.80
23497;DHT22;11925;48.122;11.560;2023-03-03T03:16:13;7.30;87.80
23497;DHT22;11925;48.122;11.560;2023-03-03T03:18:41;7.30;87.80
23497;DHT22;11925;48.122;11.560;2023-03-03T03:21:12;7.30;87.80
23497;DHT22;11925;48.122;11.560;2023-03-03T03:23:41;7.30;87.90
23497;DHT22;11925;48.122;11.560;2023-03-03T03:26:11;7.30;87.90
23497;DHT22;11925;48.122;11.560;2023-03-03T03:28:39;7.30;88.00
23497;DHT22;11925;48.122;11.560;2023-03-03T03:31:09;7.30;88.10
23497;DHT22;11925;48.122;11.560;2023-03-03T03:33:38;7.30;88.20
23497;DHT22;11925;48.122;11.560;2023-03-03T03:36:07;7.30;88.30
23497;DHT22;11925;48.122;11.560;2023-03-03T03:38:36;7.30;88.40
23497;DHT22;11925;48.122;11.560;2023-03-03T03:41:07;7.30;88.60
23497;DHT22;11925;48.122;11.560;2023-03-03T03:43:35;7.40;88.80
23497;DHT22;11925;48.122;11.560;2023-03-03T03:46:04;7.30;88.70
23497;DHT22;11925;48.122;11.560;2023-03-03T03:48:35;7.20;88.60
23497;DHT22;11925;48.122;11.560;2023-03-03T03:51:05;7.30;89.00
23497;DHT22;11925;48.122;11.560;2023-03-03T03:53:34;7.20;89.00
23497;DHT22;11925;48.122;11.560;2023-03-03T03:56:02;7.30;89.20
23497;DHT22;11925;48.122;11.560;2023-03-03T03:58:31;7.30;89.20
23497;DHT22;11925;48.122;11.560;2023-03-03T04:01:05;7.40;89.30
23497;DHT22;11925;48.122;11.560;2023-03-03T04:03:40;7.30;89.30
23497;DHT22;11925;48.122;11.560;2023-03-03T04:06:12;7.30;89.20
23497;DHT22;11925;48.122;11.560;2023-03-03T04:08:40;7.30;89.20
23497;DHT22;11925;48.122;11.560;2023-03-03T04:11:10;7.30;89.20
23497;DHT22;11925;48.122;11.560;2023-03-03T04:13:38;7.30;89.30
23497;DHT22;11925;48.122;11.560;2023-03-03T04:16:08;7.30;89.30
23497;DHT22;11925;48.122;11.560;2023-03-03T04:18:40;7.30;89.40
23497;DHT22;11925;48.122;11.560;2023-03-03T04:21:13;7.30;89.50
23497;DHT22;11925;48.122;11.560;2023-03-03T04:23:44;7.30;89.60
23497;DHT22;11925;48.122;11.560;2023-03-03T04:26:12;7.30;89.70
23497;DHT22;11925;48.122;11.560;2023-03-03T04:28:42;7.30;89.80
23497;DHT22;11925;48.122;11.560;2023-03-03T04:31:11;7.30;90.00
23497;DHT22;11925;48.122;11.560;2023-03-03T04:33:41;7.20;90.00
23497;DHT22;11925;48.122;11.560;2023-03-03T04:36:10;7.30;90.00
23497;DHT22;11925;48.122;11.560;2023-03-03T04:38:39;7.30;90.00
23497;DHT22;11925;48.122;11.560;2023-03-03T04:41:07;7.30;90.00
23497;DHT22;11925;48.122;11.560;2023-03-03T04:43:37;7.30;90.00
23497;DHT22;11925;48.122;11.560;2023-03-03T04:46:06;7.20;90.10
23497;DHT22;11925;48.122;11.560;2023-03-03T04:48:36;7.30;90.10
23497;DHT22;11925;48.122;11.560;2023-03-03T04:51:06;7.30;90.10
23497;DHT22;11925;48.122;11.560;2023-03-03T04:53:36;7.30;90.10
23497;DHT22;11925;48.122;11.560;2023-03-03T04:56:06;7.30;90.10
23497;DHT22;11925;48.122;11.560;2023-03-03T04:58:35;7.30;90.00
23497;DHT22;11925;48.122;11.560;2023-03-03T05:01:04;7.30;90.10
23497;DHT22;11925;48.122;11.560;2023-03-03T05:03:33;7.40;90.10
23497;DHT22;11925;48.122;11.560;2023-03-03T05:06:03;7.40;90.10
23497;DHT22;11925;48.122;11.560;2023-03-03T05:08:34;7.30;90.10
23497;DHT22;11925;48.122;11.560;2023-03-03T05:11:05;7.30;90.10
23497;DHT22;11925;48.122;11.560;2023-03-03T05:13:34;7.30;90.10
23497;DHT22;11925;48.122;11.560;2023-03-03T05:16:02;7.40;90.10
23497;DHT22;11925;48.122;11.560;2023-03-03T05:18:31;7.40;90.20
23497;DHT22;11925;48.122;11.560;2023-03-03T05:20:59;7.30;90.30
23497;DHT22;11925;48.122;11.560;2023-03-03T05:23:28;7.40;90.30
23497;DHT22;11925;48.122;11.560;2023-03-03T05:25:58;7.30;90.30
23497;DHT22;11925;48.122;11.560;2023-03-03T05:28:27;7.30;90.40
23497;DHT22;11925;48.122;11.560;2023-03-03T05:30:55;7.30;90.40
23497;DHT22;11925;48.122;11.560;2023-03-03T05:33:23;7.30;90.80
23497;DHT22;11925;48.122;11.560;2023-03-03T05:35:53;7.40;90.50
23497;DHT22;11925;48.122;11.560;2023-03-03T05:38:21;7.30;90.50
23497;DHT22;11925;48.122;11.560;2023-03-03T05:40:50;7.40;90.50
23497;DHT22;11925;48.122;11.560;2023-03-03T05:43:20;7.30;90.50
23497;DHT22;11925;48.122;11.560;2023-03-03T05:45:53;7.40;90.50
23497;DHT22;11925;48.122;11.560;2023-03-03T05:48:22;7.40;90.40
23497;DHT22;11925;48.122;11.560;2023-03-03T05:50:50;7.40;90.30
23497;DHT22;11925;48.122;11.560;2023-03-03T05:53:18;7.40;90.30
23497;DHT22;11925;48.122;11.560;2023-03-03T05:55:46;7.40;90.30
23497;DHT22;11925;48.122;11.560;2023-03-03T05:58:15;7.50;90.30
23497;DHT22;11925;48.122;11.560;2023-03-03T06:00:44;7.50;90.30
23497;DHT22;11925;48.122;11.560;2023-03-03T06:03:13;7.50;90.30
23497;DHT22;11925;48.122;11.560;2023-03-03T06:05:42;7.50;90.30
23497;DHT22;11925;48.122;11.560;2023-03-03T06:08:11;7.50;90.30
23497;DHT22;11925;48.122;11.560;2023-03-03T06:10:39;7.60;90.20
23497;DHT22;11925;48.122;11.560;2023-03-03T06:13:10;7.60;90.30
23497;DHT22;11925;48.122;11.560;2023-03-03T06:15:38;7.50;90.20
23497;DHT22;11925;48.122;11.560;2023-03-03T06:18:08;7.50;90.20
23497;DHT22;11925;48.122;11.560;2023-03-03T06:20:36;7.50;90.30
23497;DHT22;11925;48.122;11.560;2023-03-03T06:23:05;7.50;90.30
23497;DHT22;11925;48.122;11.560;2023-03-03T06:25:33;7.50;90.30
23497;DHT22;11925;48.122;11.560;2023-03-03T06:28:02;7.60;90.30
23497;DHT22;11925;48.122;11.560;2023-03-03T06:30:30;7.60;90.30
23497;DHT22;11925;48.122;11.560;2023-03-03T06:32:59;7.50;90.30
23497;DHT22;11925;48.122;11.560;2023-03-03T06:35:28;7.50;90.30
23497;DHT22;11925;48.122;11.560;2023-03-03T06:37:57;7.50;90.30
23497;DHT22;11925;48.122;11.560;2023-03-03T06:40:25;7.60;90.30
23497;DHT22;11925;48.122;11.560;2023-03-03T06:42:53;7.50;90.30
23497;DHT22;11925;48.122;11.560;2023-03-03T06:45:22;7.50;90.30
23497;DHT22;11925;48.122;11.560;2023-03-03T06:47:50;7.50;90.30
23497;DHT22;11925;48.122;11.560;2023-03-03T06:50:19;7.60;90.30
23497;DHT22;11925;48.122;11.560;2023-03-03T06:52:58;7.60;90.30
23497;DHT22;11925;48.122;11.560;2023-03-03T06:55:28;7.60;90.30
23497;DHT22;11925;48.122;11.560;2023-03-03T06:57:58;7.60;90.30
23497;DHT22;11925;48.122;11.560;2023-03-03T07:00:27;7.50;90.30
23497;DHT22;11925;48.122;11.560;2023-03-03T07:02:59;7.60;90.30
23497;DHT22;11925;48.122;11.560;2023-03-03T07:05:28;7.60;90.30
23497;DHT22;11925;48.122;11.560;2023-03-03T07:07:58;7.60;90.30
23497;DHT22;11925;48.122;11.560;2023-03-03T07:10:28;7.60;90.30
23497;DHT22;11925;48.122;11.560;2023-03-03T07:13:01;7.60;90.30
23497;DHT22;11925;48.122;11.560;2023-03-03T07:15:37;7.60;90.20
23497;DHT22;11925;48.122;11.560;2023-03-03T07:18:08;7.60;90.10
23497;DHT22;11925;48.122;11.560;2023-03-03T07:20:44;7.60;90.20
23497;DHT22;11925;48.122;11.560;2023-03-03T07:23:20;7.60;90.20
23497;DHT22;11925;48.122;11.560;2023-03-03T07:25:50;7.60;90.20
23497;DHT22;11925;48.122;11.560;2023-03-03T07:28:22;7.60;90.30
23497;DHT22;11925;48.122;11.560;2023-03-03T07:30:51;7.60;90.30
23497;DHT22;11925;48.122;11.560;2023-03-03T07:33:25;7.60;90.20
23497;DHT22;11925;48.122;11.560;2023-03-03T07:35:55;7.60;90.30
23497;DHT22;11925;48.122;11.560;2023-03-03T07:38:30;7.60;90.20
23497;DHT22;11925;48.122;11.560;2023-03-03T07:41:03;7.60;90.10
23497;DHT22;11925;48.122;11.560;2023-03-03T07:43:36;7.60;90.20
23497;DHT22;11925;48.122;11.560;2023-03-03T07:46:33;7.60;90.20
23497;DHT22;11925;48.122;11.560;2023-03-03T07:49:23;7.60;90.10
23497;DHT22;11925;48.122;11.560;2023-03-03T07:51:53;7.60;90.10
23497;DHT22;11925;48.122;11.560;2023-03-03T07:54:29;7.60;90.10
23497;DHT22;11925;48.122;11.560;2023-03-03T07:57:11;7.60;90.10
23497;DHT22;11925;48.122;11.560;2023-03-03T07:59:45;7.60;90.10
23497;DHT22;11925;48.122;11.560;2023-03-03T08:02:37;7.60;90.10
23497;DHT22;11925;48.122;11.560;2023-03-03T08:05:28;7.60;90.10
23497;DHT22;11925;48.122;11.560;2023-03-03T08:08:27;7.60;90.10
23497;DHT22;11925;48.122;11.560;2023-03-03T08:10:58;7.60;90.10
23497;DHT22;11925;48.122;11.560;2023-03-03T08:13:28;7.60;90.10
23497;DHT22;11925;48.122;11.560;2023-03-03T08:16:24;7.60;90.10
23497;DHT22;11925;48.122;11.560;2023-03-03T08:19:02;7.60;90.00
23497;DHT22;11925;48.122;11.560;2023-03-03T08:21:30;7.60;90.00
23497;DHT22;11925;48.122;11.560;2023-03-03T08:24:00;7.70;90.10
23497;DHT22;11925;48.122;11.560;2023-03-03T08:26:30;7.70;90.10
23497;DHT22;11925;48.122;11.560;2023-03-03T08:28:58;7.60;90.10
23497;DHT22;11925;48.122;11.560;2023-03-03T08:31:27;7.70;90.10
23497;DHT22;11925;48.122;11.560;2023-03-03T08:34:06;7.70;90.10
23497;DHT22;11925;48.122;11.560;2023-03-03T08:36:35;7.70;90.40
23497;DHT22;11925;48.122;11.560;2023-03-03T08:39:04;7.70;90.10
23497;DHT22;11925;48.122;11.560;2023-03-03T08:41:33;7.70;90.10
23497;DHT22;11925;48.122;11.560;2023-03-03T08:44:02;7.70;90.10
23497;DHT22;11925;48.122;11.560;2023-03-03T08:46:30;7.80;90.20
23497;DHT22;11925;48.122;11.560;2023-03-03T08:48:58;7.70;90.10
23497;DHT22;11925;48.122;11.560;2023-03-03T08:51:29;7.70;90.20
23497;DHT22;11925;48.122;11.560;2023-03-03T08:53:59;7.70;90.20
23497;DHT22;11925;48.122;11.560;2023-03-03T08:56:30;7.80;90.20
23497;DHT22;11925;48.122;11.560;2023-03-03T08:59:05;7.80;90.20
23497;DHT22;11925;48.122;11.560;2023-03-03T09:01:34;7.80;90.20
23497;DHT22;11925;48.122;11.560;2023-03-03T09:04:02;7.80;90.20
23497;DHT22;11925;48.122;11.560;2023-03-03T09:06:30;7.80;90.20
23497;DHT22;11925;48.122;11.560;2023-03-03T09:08:58;7.80;90.20
23497;DHT22;11925;48.122;11.560;2023-03-03T09:11:28;7.80;90.30
23497;DHT22;11925;48.122;11.560;2023-03-03T09:14:03;7.80;90.30
23497;DHT22;11925;48.122;11.560;2023-03-03T09:16:37;7.80;90.20
23497;DHT22;11925;48.122;11.560;2023-03-03T09:19:17;7.80;90.20
23497;DHT22;11925;48.122;11.560;2023-03-03T09:21:47;7.80;90.20
23497;DHT22;11925;48.122;11.560;2023-03-03T09:24:23;7.80;90.30
23497;DHT22;11925;48.122;11.560;2023-03-03T09:26:52;7.80;90.20
23497;DHT22;11925;48.122;11.560;2023-03-03T09:29:25;7.80;90.20
23497;DHT22;11925;48.122;11.560;2023-03-03T09:31:57;7.80;90.30
23497;DHT22;11925;48.122;11.560;2023-03-03T09:34:37;7.80;90.30
23497;DHT22;11925;48.122;11.560;2023-03-03T09:37:19;7.80;90.30
23497;DHT22;11925;48.122;11.560;2023-03-03T09:39:50;7.80;90.20
23497;DHT22;11925;48.122;11.560;2023-03-03T09:42:45;7.90;90.30
23497;DHT22;11925;48.122;11.560;2023-03-03T09:45:43;7.80;90.40
23497;DHT22;11925;48.122;11.560;2023-03-03T09:48:41;7.80;90.30
23497;DHT22;11925;48.122;11.560;2023-03-03T09:51:39;7.80;90.30
23497;DHT22;11925;48.122;11.560;2023-03-03T09:54:16;7.90;90.30
23497;DHT22;11925;48.122;11.560;2023-03-03T09:56:50;7.90;90.20
23497;DHT22;11925;48.122;11.560;2023-03-03T09:59:30;8.00;90.20
23497;DHT22;11925;48.122;11.560;2023-03-03T10:02:18;7.90;90.20
23497;DHT22;11925;48.122;11.560;2023-03-03T10:05:19;8.00;90.30
23497;DHT22;11925;48.122;11.560;2023-03-03T10:08:05;8.00;90.20
23497;DHT22;11925;48.122;11.560;2023-03-03T10:10:52;8.00;90.60
23497;DHT22;11925;48.122;11.560;2023-03-03T10:13:34;8.00;90.20
23497;DHT22;11925;48.122;11.560;2023-03-03T10:19:31;8.00;90.30
23497;DHT22;11925;48.122;11.560;2023-03-03T10:22:16;8.00;90.30
23497;DHT22;11925;48.122;11.560;2023-03-03T10:25:00;8.00;90.30
23497;DHT22;11925;48.122;11.560;2023-03-03T10:27:47;8.00;90.30
23497;DHT22;11925;48.122;11.560;2023-03-03T10:30:27;8.00;90.30
23497;DHT22;11925;48.122;11.560;2023-03-03T10:33:14;8.00;90.30
23497;DHT22;11925;48.122;11.560;2023-03-03T10:36:18;8.00;90.30
23497;DHT22;11925;48.122;11.560;2023-03-03T10:39:00;8.00;90.30
23497;DHT22;11925;48.122;11.560;2023-03-03T10:41:49;8.00;90.30
23497;DHT22;11925;48.122;11.560;2023-03-03T10:44:43;8.00;90.30
23497;DHT22;11925;48.122;11.560;2023-03-03T10:47:30;8.10;90.40
23497;DHT22;11925;48.122;11.560;2023-03-03T10:50:10;8.10;90.40
23497;DHT22;11925;48.122;11.560;2023-03-03T10:52:45;8.00;90.30
23497;DHT22;11925;48.122;11.560;2023-03-03T10:55:24;8.00;90.40
23497;DHT22;11925;48.122;11.560;2023-03-03T10:58:10;8.00;90.40
23497;DHT22;11925;48.122;11.560;2023-03-03T11:00:45;8.00;90.40
23497;DHT22;11925;48.122;11.560;2023-03-03T11:03:44;8.10;90.50
23497;DHT22;11925;48.122;11.560;2023-03-03T11:06:19;8.10;90.50
23497;DHT22;11925;48.122;11.560;2023-03-03T11:08:51;8.10;90.50
23497;DHT22;11925;48.122;11.560;2023-03-03T11:11:23;8.10;90.50
23497;DHT22;11925;48.122;11.560;2023-03-03T11:13:53;8.10;90.50
23497;DHT22;11925;48.122;11.560;2023-03-03T11:16:49;8.10;90.50
23497;DHT22;11925;48.122;11.560;2023-03-03T11:19:42;8.10;90.50
23497;DHT22;11925;48.122;11.560;2023-03-03T11:25:14;8.10;90.50
23497;DHT22;11925;48.122;11.560;2023-03-03T11:28:01;8.10;90.50
23497;DHT22;11925;48.122;11.560;2023-03-03T11:30:46;8.10;90.50
23497;DHT22;11925;48.122;11.560;2023-03-03T11:33:21;8.10;90.60
23497;DHT22;11925;48.122;11.560;2023-03-03T11:35:55;8.10;90.60
23497;DHT22;11925;48.122;11.560;2023-03-03T11:38:37;8.10;90.60
23497;DHT22;11925;48.122;11.560;2023-03-03T11:41:18;8.10;90.60
23497;DHT22;11925;48.122;11.560;2023-03-03T11:43:54;8.10;90.50
23497;DHT22;11925;48.122;11.560;2023-03-03T11:46:26;8.10;90.60
23497;DHT22;11925;48.122;11.560;2023-03-03T11:49:01;8.10;90.60
23497;DHT22;11925;48.122;11.560;2023-03-03T11:51:40;8.10;90.60
23497;DHT22;11925;48.122;11.560;2023-03-03T11:54:16;8.10;90.50
23497;DHT22;11925;48.122;11.560;2023-03-03T11:56:46;8.10;90.50
23497;DHT22;11925;48.122;11.560;2023-03-03T12:02:46;8.10;90.50
23497;DHT22;11925;48.122;11.560;2023-03-03T12:05:30;8.20;90.50
23497;DHT22;11925;48.122;11.560;2023-03-03T12:08:04;8.20;90.60
23497;DHT22;11925;48.122;11.560;2023-03-03T12:10:40;8.20;90.70
23497;DHT22;11925;48.122;11.560;2023-03-03T12:13:16;8.20;90.70
23497;DHT22;11925;48.122;11.560;2023-03-03T12:15:54;8.20;90.70
23497;DHT22;11925;48.122;11.560;2023-03-03T12:18:39;8.20;90.70
23497;DHT22;11925;48.122;11.560;2023-03-03T12:21:24;8.60;90.80
23497;DHT22;11925;48.122;11.560;2023-03-03T12:24:19;8.20;90.70
23497;DHT22;11925;48.122;11.560;2023-03-03T12:26:56;8.20;90.70
23497;DHT22;11925;48.122;11.560;2023-03-03T12:29:35;8.20;90.80
23497;DHT22;11925;48.122;11.560;2023-03-03T12:32:18;8.20;90.80
23497;DHT22;11925;48.122;11.560;2023-03-03T12:34:57;8.20;90.70
23497;DHT22;11925;48.122;11.560;2023-03-03T12:37:43;8.20;90.80
23497;DHT22;11925;48.122;11.560;2023-03-03T12:40:18;8.20;90.80
23497;DHT22;11925;48.122;11.560;2023-03-03T12:43:02;8.20;90.70
23497;DHT22;11925;48.122;11.560;2023-03-03T12:45:43;8.20;90.80
23497;DHT22;11925;48.122;11.560;2023-03-03T12:48:15;8.20;90.80
23497;DHT22;11925;48.122;11.560;2023-03-03T12:50:56;8.30;90.90
23497;DHT22;11925;48.122;11.560;2023-03-03T12:53:37;8.30;90.90
23497;DHT22;11925;48.122;11.560;2023-03-03T12:56:08;8.30;90.90
23497;DHT22;11925;48.122;11.560;2023-03-03T12:58:44;8.30;90.90
23497;DHT22;11925;48.122;11.560;2023-03-03T13:01:30;8.30;90.90
23497;DHT22;11925;48.122;11.560;2023-03-03T13:04:06;8.30;90.90
23497;DHT22;11925;48.122;11.560;2023-03-03T13:06:41;8.30;90.90
23497;DHT22;11925;48.122;11.560;2023-03-03T13:09:21;8.30;90.90
23497;DHT22;11925;48.122;11.560;2023-03-03T13:12:04;8.30;90.90
23497;DHT22;11925;48.122;11.560;2023-03-03T13:14:39;8.30;90.90
23497;DHT22;11925;48.122;11.560;2023-03-03T13:17:18;8.30;90.80
23497;DHT22;11925;48.122;11.560;2023-03-03T13:19:53;8.40;90.90
23497;DHT22;11925;48.122;11.560;2023-03-03T13:22:34;8.30;90.80
23497;DHT22;11925;48.122;11.560;2023-03-03T13:25:15;8.40;90.80
23497;DHT22;11925;48.122;11.560;2023-03-03T13:27:51;8.30;90.70
23497;DHT22;11925;48.122;11.560;2023-03-03T13:30:22;8.30;90.70
23497;DHT22;11925;48.122;11.560;2023-03-03T13:32:56;8.30;90.70
23497;DHT22;11925;48.122;11.560;2023-03-03T13:35:32;8.40;90.70
23497;DHT22;11925;48.122;11.560;2023-03-03T13:38:10;8.40;91.00
23497;DHT22;11925;48.122;11.560;2023-03-03T13:40:43;8.40;90.60
23497;DHT22;11925;48.122;11.560;2023-03-03T13:43:16;8.40;90.50
23497;DHT22;11925;48.122;11.560;2023-03-03T13:45:53;8.40;90.60
23497;DHT22;11925;48.122;11.560;2023-03-03T13:48:40;8.40;90.50
23497;DHT22;11925;48.122;11.560;2023-03-03T13:51:19;8.40;90.60
23497;DHT22;11925;48.122;11.560;2023-03-03T13:53:57;8.40;90.70
23497;DHT22;11925;48.122;11.560;2023-03-03T13:56:38;8.50;90.60
23497;DHT22;11925;48.122;11.560;2023-03-03T13:59:19;8.40;90.50
23497;DHT22;11925;48.122;11.560;2023-03-03T14:01:55;8.40;90.50
23497;DHT22;11925;48.122;11.560;2023-03-03T14:04:31;8.40;90.50
23497;DHT22;11925;48.122;11.560;2023-03-03T14:07:10;8.40;90.50
23497;DHT22;11925;48.122;11.560;2023-03-03T14:09:54;8.50;90.60
23497;DHT22;11925;48.122;11.560;2023-03-03T14:12:32;8.50;90.50
23497;DHT22;11925;48.122;11.560;2023-03-03T14:15:15;8.50;90.90
23497;DHT22;11925;48.122;11.560;2023-03-03T14:17:57;8.50;90.50
23497;DHT22;11925;48.122;11.560;2023-03-03T14:20:29;8.50;90.50
23497;DHT22;11925;48.122;11.560;2023-03-03T14:23:00;8.60;90.70
23497;DHT22;11925;48.122;11.560;2023-03-03T14:25:51;8.60;90.70
23497;DHT22;11925;48.122;11.560;2023-03-03T14:28:21;8.60;90.80
23497;DHT22;11925;48.122;11.560;2023-03-03T14:30:52;8.60;90.80
23497;DHT22;11925;48.122;11.560;2023-03-03T14:33:29;8.60;91.00
23497;DHT22;11925;48.122;11.560;2023-03-03T14:36:10;8.50;90.80
23497;DHT22;11925;48.122;11.560;2023-03-03T14:38:45;8.60;90.80
23497;DHT22;11925;48.122;11.560;2023-03-03T14:41:21;8.50;90.80
23497;DHT22;11925;48.122;11.560;2023-03-03T14:43:58;8.60;90.70
23497;DHT22;11925;48.122;11.560;2023-03-03T14:46:37;8.60;90.70
23497;DHT22;11925;48.122;11.560;2023-03-03T14:49:14;8.50;90.60
23497;DHT22;11925;48.122;11.560;2023-03-03T14:51:45;8.50;90.60
23497;DHT22;11925;48.122;11.560;2023-03-03T14:54:19;8.60;90.60
23497;DHT22;11925;48.122;11.560;2023-03-03T14:57:06;8.60;90.60
23497;DHT22;11925;48.122;11.560;2023-03-03T14:59:38;8.60;90.60
23497;DHT22;11925;48.122;11.560;2023-03-03T15:02:30;8.60;90.60
23497;DHT22;11925;48.122;11.560;2023-03-03T15:05:20;8.60;90.70
23497;DHT22;11925;48.122;11.560;2023-03-03T15:07:51;8.60;90.80
23497;DHT22;11925;48.122;11.560;2023-03-03T15:10:33;8.70;90.90
23497;DHT22;11925;48.122;11.560;2023-03-03T15:13:33;8.60;90.80
23497;DHT22;11925;48.122;11.560;2023-03-03T15:16:08;8.60;90.70
23497;DHT22;11925;48.122;11.560;2023-03-03T15:18:59;8.60;90.60
23497;DHT22;11925;48.122;11.560;2023-03-03T15:21:36;8.60;90.60
23497;DHT22;11925;48.122;11.560;2023-03-03T15:24:13;8.70;90.90
23497;DHT22;11925;48.122;11.560;2023-03-03T15:26:51;8.70;90.90
23497;DHT22;11925;48.122;11.560;2023-03-03T15:29:25;8.70;91.00
23497;DHT22;11925;48.122;11.560;2023-03-03T15:31:59;8.80;91.10
23497;DHT22;11925;48.122;11.560;2023-03-03T15:34:37;8.80;91.10
23497;DHT22;11925;48.122;11.560;2023-03-03T15:37:16;8.80;91.30
23497;DHT22;11925;48.122;11.560;2023-03-03T15:39:51;8.80;91.20
23497;DHT22;11925;48.122;11.560;2023-03-03T15:42:31;8.80;91.20
23497;DHT22;11925;48.122;11.560;2023-03-03T15:45:09;8.80;91.20
23497;DHT22;11925;48.122;11.560;2023-03-03T15:48:09;8.80;91.20
23497;DHT22;11925;48.122;11.560;2023-03-03T15:50:51;8.80;91.30
23497;DHT22;11925;48.122;11.560;2023-03-03T15:53:44;8.80;90.90
23497;DHT22;11925;48.122;11.560;2023-03-03T15:56:28;8.80;90.70
23497;DHT22;11925;48.122;11.560;2023-03-03T15:59:19;8.70;90.60
23497;DHT22;11925;48.122;11.560;2023-03-03T16:02:00;8.80;90.70
23497;DHT22;11925;48.122;11.560;2023-03-03T16:04:36;8.80;90.70
23497;DHT22;11925;48.122;11.560;2023-03-03T16:07:15;8.80;90.70
23497;DHT22;11925;48.122;11.560;2023-03-03T16:09:53;8.80;90.70
23497;DHT22;11925;48.122;11.560;2023-03-03T16:12:29;8.80;90.60
23497;DHT22;11925;48.122;11.560;2023-03-03T16:15:14;8.80;90.70
23497;DHT22;11925;48.122;11.560;2023-03-03T16:17:53;8.80;90.50
23497;DHT22;11925;48.122;11.560;2023-03-03T16:20:29;8.80;90.30
23497;DHT22;11925;48.122;11.560;2023-03-03T16:23:15;8.80;90.20
23497;DHT22;11925;48.122;11.560;2023-03-03T16:25:57;8.80;90.20
23497;DHT22;11925;48.122;11.560;2023-03-03T16:28:39;8.80;90.20